createdAt,value
2018-08-22T00:01:55.425Z,4.40
2018-08-22T00:04:23.900Z,4.60
2018-08-22T00:06:52.420Z,4.63
2018-08-22T00:09:20.838Z,4.60
2018-08-22T00:11:49.270Z,4.50
2018-08-22T00:14:17.739Z,4.70
2018-08-22T00:16:46.132Z,4.30
2018-08-22T00:19:14.800Z,4.50
2018-08-22T00:21:43.268Z,4.77
2018-08-22T00:24:11.672Z,4.57
2018-08-22T00:26:40.113Z,4.67
2018-08-22T00:29:08.589Z,4.20
2018-08-22T00:31:36.975Z,4.73
2018-08-22T00:34:05.437Z,4.63
2018-08-22T00:36:33.868Z,4.60
2018-08-22T00:39:02.269Z,4.53
2018-08-22T00:41:30.688Z,4.67
2018-08-22T00:43:59.097Z,4.50
2018-08-22T00:46:27.517Z,4.37
2018-08-22T00:48:55.947Z,4.80
2018-08-22T00:51:24.407Z,4.70
2018-08-22T00:53:52.860Z,4.53
2018-08-22T00:56:21.360Z,4.50
2018-08-22T00:58:49.765Z,4.70
2018-08-22T01:01:18.168Z,4.47
2018-08-22T01:03:46.685Z,4.60
2018-08-22T01:06:15.100Z,4.83
2018-08-22T01:08:43.539Z,4.70
2018-08-22T01:11:11.976Z,4.57
2018-08-22T01:13:40.533Z,4.67
2018-08-22T01:16:08.936Z,4.73
2018-08-22T01:18:37.322Z,4.90
2018-08-22T01:21:06.246Z,4.50
2018-08-22T01:23:34.698Z,5.20
2018-08-22T01:26:03.120Z,4.37
2018-08-22T01:28:31.564Z,4.73
2018-08-22T01:30:59.967Z,4.60
2018-08-22T01:33:28.414Z,5.20
2018-08-22T01:35:56.792Z,5.00
2018-08-22T01:38:25.203Z,5.03
2018-08-22T01:40:53.633Z,5.10
2018-08-22T01:43:22.343Z,4.90
2018-08-22T01:45:50.737Z,4.67
2018-08-22T01:48:19.176Z,4.47
2018-08-22T01:50:47.576Z,4.50
2018-08-22T01:53:15.981Z,5.10
2018-08-22T01:55:44.501Z,4.50
2018-08-22T01:58:12.865Z,4.67
2018-08-22T02:00:41.323Z,4.50
2018-08-22T02:03:10.088Z,4.53
2018-08-22T02:05:38.617Z,4.60
2018-08-22T02:08:07.009Z,4.77
2018-08-22T02:10:35.434Z,4.70
2018-08-22T02:13:03.847Z,4.60
2018-08-22T02:15:32.261Z,4.80
2018-08-22T02:18:00.715Z,4.70
2018-08-22T02:20:29.152Z,4.70
2018-08-22T02:22:57.830Z,4.80
2018-08-22T02:25:26.248Z,4.87
2018-08-22T02:27:54.653Z,5.10
2018-08-22T02:30:23.108Z,5.27
2018-08-22T02:32:51.509Z,4.83
2018-08-22T02:35:19.942Z,6.37
2018-08-22T02:37:48.338Z,6.60
2018-08-22T02:40:16.754Z,5.00
2018-08-22T02:42:45.222Z,5.80
2018-08-22T02:45:13.689Z,5.50
2018-08-22T02:47:42.089Z,9.77
2018-08-22T02:50:10.510Z,12.10
2018-08-22T02:52:38.924Z,7.20
2018-08-22T02:55:07.344Z,5.60
2018-08-22T02:57:35.764Z,6.17
2018-08-22T03:00:04.255Z,7.80
2018-08-22T03:02:32.663Z,10.27
2018-08-22T03:05:01.095Z,5.87
2018-08-22T03:07:29.489Z,5.57
2018-08-22T03:09:57.892Z,14.10
2018-08-22T03:12:26.311Z,6.27
2018-08-22T03:14:54.744Z,7.37
2018-08-22T03:17:23.177Z,5.80
2018-08-22T03:19:51.605Z,5.30
2018-08-22T03:22:19.983Z,5.63
2018-08-22T03:24:48.364Z,5.03
2018-08-22T03:27:16.751Z,5.50
2018-08-22T03:29:45.155Z,4.97
2018-08-22T03:32:13.534Z,4.97
2018-08-22T03:34:41.956Z,5.00
2018-08-22T03:37:10.376Z,5.00
2018-08-22T03:39:38.789Z,4.90
2018-08-22T03:42:07.424Z,4.70
2018-08-22T03:44:35.919Z,4.83
2018-08-22T03:47:04.350Z,5.00
2018-08-22T03:49:32.757Z,5.20
2018-08-22T03:52:01.164Z,5.50
2018-08-22T03:54:29.701Z,4.90
2018-08-22T03:56:58.084Z,5.07
2018-08-22T03:59:26.498Z,5.27
2018-08-22T04:01:54.880Z,5.00
2018-08-22T04:04:23.293Z,5.00
2018-08-22T04:06:51.665Z,4.87
2018-08-22T04:09:20.060Z,5.10
2018-08-22T04:11:48.581Z,5.30
2018-08-22T04:14:17.242Z,5.13
2018-08-22T04:16:45.619Z,5.17
2018-08-22T04:19:14.029Z,5.40
2018-08-22T04:21:42.434Z,5.10
2018-08-22T04:24:10.845Z,5.90
2018-08-22T04:26:39.235Z,4.87
2018-08-22T04:29:07.676Z,5.27
2018-08-22T04:31:36.105Z,5.30
2018-08-22T04:34:04.502Z,5.33
2018-08-22T04:36:32.888Z,5.33
2018-08-22T04:39:01.286Z,5.37
2018-08-22T04:41:30.017Z,5.80
2018-08-22T04:43:58.409Z,5.23
2018-08-22T04:46:26.802Z,5.50
2018-08-22T04:48:55.192Z,6.70
2018-08-22T04:51:23.624Z,6.00
2018-08-22T04:53:52.021Z,5.70
2018-08-22T04:56:20.423Z,5.77
2018-08-22T04:58:48.792Z,7.40
2018-08-22T05:01:17.177Z,6.23
2018-08-22T05:03:45.644Z,6.20
2018-08-22T05:06:14.035Z,6.37
2018-08-22T05:08:42.522Z,6.27
2018-08-22T05:11:10.916Z,5.80
2018-08-22T05:13:39.361Z,5.83
2018-08-22T05:16:07.761Z,6.17
2018-08-22T05:18:36.575Z,5.83
2018-08-22T05:21:05.068Z,6.53
2018-08-22T05:23:33.478Z,5.27
2018-08-22T05:26:02.083Z,5.77
2018-08-22T05:28:30.477Z,6.00
2018-08-22T05:30:58.928Z,5.33
2018-08-22T05:33:27.362Z,5.50
2018-08-22T05:35:55.796Z,5.40
2018-08-22T05:38:24.185Z,5.73
2018-08-22T05:40:52.708Z,5.67
2018-08-22T05:43:21.081Z,5.73
2018-08-22T05:45:49.499Z,4.93
2018-08-22T05:48:17.900Z,5.27
2018-08-22T05:50:46.328Z,5.30
2018-08-22T05:53:14.715Z,5.57
2018-08-22T05:55:43.094Z,5.70
2018-08-22T05:58:11.477Z,4.87
2018-08-22T06:00:39.992Z,4.97
2018-08-22T06:03:08.389Z,5.27
2018-08-22T06:05:36.849Z,5.30
2018-08-22T06:08:05.269Z,5.30
2018-08-22T06:10:33.648Z,5.33
2018-08-22T06:13:02.124Z,4.70
2018-08-22T06:15:30.538Z,5.07
2018-08-22T06:17:58.975Z,4.67
2018-08-22T06:20:27.435Z,4.57
2018-08-22T06:22:55.834Z,4.60
2018-08-22T06:25:24.231Z,4.87
2018-08-22T06:27:52.825Z,4.40
2018-08-22T06:30:21.255Z,4.30
2018-08-22T06:32:49.660Z,4.50
2018-08-22T06:35:18.107Z,4.50
2018-08-22T06:37:46.539Z,3.83
2018-08-22T06:40:14.909Z,4.50
2018-08-22T06:42:43.302Z,4.20
2018-08-22T06:45:11.751Z,4.20
2018-08-22T06:47:40.164Z,4.20
2018-08-22T06:50:08.635Z,4.10
2018-08-22T06:52:36.996Z,3.73
2018-08-22T06:55:06.064Z,3.70
2018-08-22T06:57:34.471Z,3.73
2018-08-22T07:00:02.938Z,4.40
2018-08-22T07:02:31.426Z,3.70
2018-08-22T07:04:59.883Z,3.53
2018-08-22T07:07:28.280Z,3.73
2018-08-22T07:09:56.672Z,4.00
2018-08-22T07:12:25.058Z,3.40
2018-08-22T07:14:53.547Z,3.87
2018-08-22T07:17:21.922Z,4.10
2018-08-22T07:19:50.376Z,3.90
2018-08-22T07:22:19.117Z,3.80
2018-08-22T07:24:47.570Z,3.77
2018-08-22T07:27:17.192Z,4.10
2018-08-22T07:29:45.734Z,4.70
2018-08-22T07:32:14.101Z,4.87
2018-08-22T07:34:42.483Z,4.30
2018-08-22T07:37:10.896Z,4.87
2018-08-22T07:39:39.464Z,4.53
2018-08-22T07:42:07.974Z,5.30
2018-08-22T07:44:36.500Z,4.53
2018-08-22T07:47:05.241Z,4.10
2018-08-22T07:49:33.600Z,4.60
2018-08-22T07:52:02.016Z,4.10
2018-08-22T07:54:34.633Z,4.17
2018-08-22T07:57:03.157Z,4.83
2018-08-22T07:59:31.608Z,4.30
2018-08-22T08:02:00.152Z,4.33
2018-08-22T08:04:28.488Z,4.50
2018-08-22T08:06:56.889Z,4.20
2018-08-22T08:09:25.257Z,4.07
2018-08-22T08:11:53.708Z,4.13
2018-08-22T08:14:22.136Z,4.50
2018-08-22T08:16:50.620Z,4.50
2018-08-22T08:19:19.090Z,4.57
2018-08-22T08:21:47.638Z,4.00
2018-08-22T08:24:16.030Z,4.67
2018-08-22T08:26:44.436Z,4.23
2018-08-22T08:29:14.149Z,4.50
2018-08-22T08:31:42.603Z,3.77
2018-08-22T08:34:11.020Z,4.37
2018-08-22T08:36:39.400Z,4.10
2018-08-22T08:39:09.397Z,4.60
2018-08-22T08:41:37.804Z,4.43
2018-08-22T08:44:06.383Z,4.67
2018-08-22T08:46:34.809Z,4.67
2018-08-22T08:49:03.643Z,4.80
2018-08-22T08:51:32.136Z,4.63
2018-08-22T08:54:00.606Z,4.13
2018-08-22T08:56:28.996Z,4.60
2018-08-22T08:58:57.394Z,4.40
2018-08-22T09:01:25.808Z,5.60
2018-08-22T09:03:54.500Z,4.87
2018-08-22T09:06:22.855Z,4.70
2018-08-22T09:08:51.286Z,4.30
2018-08-22T09:11:19.697Z,4.73
2018-08-22T09:13:53.259Z,4.73
2018-08-22T09:16:22.344Z,5.37
2018-08-22T09:18:50.744Z,5.70
2018-08-22T09:21:20.086Z,5.40
2018-08-22T09:23:48.461Z,5.50
2018-08-22T09:26:17.042Z,5.40
2018-08-22T09:28:45.799Z,5.50
2018-08-22T09:31:14.355Z,5.77
2018-08-22T09:33:42.891Z,5.10
2018-08-22T09:36:11.293Z,5.57
2018-08-22T09:38:39.754Z,6.80
2018-08-22T09:41:08.192Z,5.63
2018-08-22T09:43:36.604Z,6.50
2018-08-22T09:46:05.053Z,9.03
2018-08-22T09:48:33.509Z,6.03
2018-08-22T09:51:01.961Z,6.37
2018-08-22T09:53:30.901Z,7.97
2018-08-22T09:55:59.340Z,6.13
2018-08-22T09:58:27.743Z,6.33
2018-08-22T10:01:01.851Z,6.40
2018-08-22T10:03:44.596Z,6.50
2018-08-22T10:06:17.539Z,6.17
2018-08-22T10:08:45.937Z,7.30
2018-08-22T10:11:14.515Z,6.43
2018-08-22T10:13:43.129Z,6.43
2018-08-22T10:16:11.804Z,6.10
2018-08-22T10:18:40.210Z,6.60
2018-08-22T10:21:08.624Z,6.37
2018-08-22T10:23:37.072Z,6.07
2018-08-22T10:26:05.462Z,6.10
2018-08-22T10:28:33.903Z,7.30
2018-08-22T10:31:02.297Z,6.30
2018-08-22T10:33:30.776Z,7.33
2018-08-22T10:35:59.217Z,6.67
2018-08-22T10:38:27.680Z,6.87
2018-08-22T10:40:56.348Z,6.80
2018-08-22T10:43:24.757Z,6.70
2018-08-22T10:45:53.168Z,7.07
2018-08-22T10:48:21.592Z,7.85
2018-08-22T10:50:49.981Z,7.73
2018-08-22T10:53:18.421Z,7.17
2018-08-22T10:55:47.028Z,8.00
2018-08-22T10:58:15.458Z,6.80
2018-08-22T11:00:44.364Z,6.97
2018-08-22T11:03:12.840Z,7.07
2018-08-22T11:05:41.356Z,6.53
2018-08-22T11:08:09.793Z,6.80
2018-08-22T11:10:38.252Z,7.13
2018-08-22T11:13:06.699Z,6.67
2018-08-22T11:15:35.149Z,6.70
2018-08-22T11:18:03.529Z,6.93
2018-08-22T11:20:32.700Z,7.07
2018-08-22T11:23:12.997Z,7.10
2018-08-22T11:25:52.841Z,7.25
2018-08-22T11:28:32.480Z,7.33
2018-08-22T11:31:12.396Z,8.70
2018-08-22T11:33:52.357Z,9.27
2018-08-22T11:36:19.641Z,8.07
2018-08-22T11:38:48.125Z,7.30
2018-08-22T11:41:16.574Z,9.03
2018-08-22T11:43:44.962Z,7.27
2018-08-22T11:46:13.400Z,8.07
2018-08-22T11:48:41.869Z,8.13
2018-08-22T11:51:10.424Z,7.53
2018-08-22T11:53:38.825Z,7.10
2018-08-22T11:56:07.359Z,7.20
2018-08-22T11:58:35.688Z,7.92
2018-08-22T12:01:04.392Z,7.90
2018-08-22T12:03:32.935Z,6.95
2018-08-22T12:06:01.500Z,6.53
2018-08-22T12:08:29.934Z,7.80
2018-08-22T12:10:58.310Z,6.65
2018-08-22T12:13:26.733Z,8.50
2018-08-22T12:15:55.161Z,7.80
2018-08-22T12:18:23.607Z,8.00
2018-08-22T12:20:52.028Z,7.37
2018-08-22T12:23:20.449Z,6.83
2018-08-22T12:25:48.887Z,7.08
2018-08-22T12:28:17.292Z,7.28
2018-08-22T12:30:45.690Z,6.92
2018-08-22T12:33:14.093Z,7.33
2018-08-22T12:35:42.508Z,6.95
2018-08-22T12:38:11.142Z,7.75
2018-08-22T12:40:39.524Z,7.75
2018-08-22T12:43:07.927Z,8.30
2018-08-22T12:45:36.327Z,8.43
2018-08-22T12:48:04.879Z,7.03
2018-08-22T12:50:33.372Z,6.75
2018-08-22T12:53:01.782Z,7.58
2018-08-22T12:55:30.209Z,8.08
2018-08-22T12:57:58.934Z,6.87
2018-08-22T13:00:27.377Z,8.10
2018-08-22T13:02:55.856Z,9.15
2018-08-22T13:05:24.288Z,8.48
2018-08-22T13:07:52.717Z,7.05
2018-08-22T13:10:21.151Z,8.28
2018-08-22T13:12:49.543Z,9.48
2018-08-22T13:15:17.936Z,8.58
2018-08-22T13:17:46.440Z,10.13
2018-08-22T13:20:14.864Z,8.25
2018-08-22T13:22:43.318Z,7.55
2018-08-22T13:25:11.777Z,6.78
2018-08-22T13:27:40.208Z,7.00
2018-08-22T13:30:08.685Z,7.70
2018-08-22T13:32:37.065Z,7.90
2018-08-22T13:35:06.116Z,6.72
2018-08-22T13:37:34.539Z,7.72
2018-08-22T13:40:03.051Z,8.15
2018-08-22T13:42:31.450Z,7.58
2018-08-22T13:44:59.896Z,7.60
2018-08-22T13:47:28.351Z,7.72
2018-08-22T13:49:56.780Z,7.12
2018-08-22T13:52:25.263Z,8.60
2018-08-22T13:54:53.712Z,7.20
2018-08-22T13:57:22.396Z,6.40
2018-08-22T13:59:50.816Z,8.85
2018-08-22T14:02:19.261Z,6.58
2018-08-22T14:04:47.647Z,5.87
2018-08-22T14:07:16.141Z,6.37
2018-08-22T14:09:44.573Z,5.67
2018-08-22T14:12:12.964Z,5.75
2018-08-22T14:14:41.520Z,7.28
2018-08-22T14:17:09.941Z,6.80
2018-08-22T14:19:38.391Z,7.03
2018-08-22T14:22:06.896Z,6.83
2018-08-22T14:24:35.366Z,7.15
2018-08-22T14:27:03.868Z,6.47
2018-08-22T14:29:32.276Z,6.20
2018-08-22T14:32:00.694Z,6.12
2018-08-22T14:34:29.224Z,6.05
2018-08-22T14:36:57.756Z,8.53
2018-08-22T14:39:26.380Z,7.62
2018-08-22T14:41:54.713Z,7.30
2018-08-22T14:44:23.128Z,7.30
2018-08-22T14:46:51.555Z,6.85
2018-08-22T14:49:19.999Z,7.70
2018-08-22T14:51:48.397Z,6.75
2018-08-22T14:54:16.859Z,7.03
2018-08-22T14:56:45.260Z,6.75
2018-08-22T14:59:13.731Z,7.20
2018-08-22T15:01:42.132Z,6.53
2018-08-22T15:04:10.569Z,6.67
2018-08-22T15:06:38.990Z,6.90
2018-08-22T15:09:18.073Z,7.45
2018-08-22T15:11:47.864Z,6.40
2018-08-22T15:14:16.393Z,6.40
2018-08-22T15:16:44.877Z,7.03
2018-08-22T15:19:13.308Z,5.95
2018-08-22T15:21:41.781Z,7.22
2018-08-22T15:24:10.233Z,7.08
2018-08-22T15:26:38.708Z,6.70
2018-08-22T15:29:07.145Z,9.15
2018-08-22T15:31:35.605Z,7.55
2018-08-22T15:34:04.092Z,7.78
2018-08-22T15:36:34.769Z,7.42
2018-08-22T15:39:04.080Z,6.90
2018-08-22T15:41:32.610Z,8.00
2018-08-22T15:44:01.044Z,6.75
2018-08-22T15:46:29.758Z,8.43
2018-08-22T15:48:58.285Z,8.00
2018-08-22T15:51:26.813Z,9.00
2018-08-22T15:54:11.163Z,7.90
2018-08-22T15:56:41.056Z,7.30
2018-08-22T15:59:10.460Z,8.63
2018-08-22T16:01:39.521Z,7.62
2018-08-22T16:04:08.683Z,7.28
2018-08-22T16:06:37.194Z,7.97
2018-08-22T16:09:10.503Z,9.15
2018-08-22T16:11:39.005Z,8.95
2018-08-22T16:14:07.560Z,8.75
2018-08-22T16:16:36.345Z,8.18
2018-08-22T16:19:04.901Z,7.58
2018-08-22T16:21:33.429Z,9.23
2018-08-22T16:24:01.903Z,8.20
2018-08-22T16:26:30.313Z,7.97
2018-08-22T16:28:59.932Z,7.95
2018-08-22T16:31:33.837Z,7.73
2018-08-22T16:34:02.249Z,9.60
2018-08-22T16:36:31.494Z,10.10
2018-08-22T16:39:01.206Z,9.80
2018-08-22T16:41:29.652Z,9.68
2018-08-22T16:43:58.160Z,8.83
2018-08-22T16:46:26.641Z,9.10
2018-08-22T16:48:56.043Z,8.93
2018-08-22T16:51:24.760Z,8.88
2018-08-22T16:54:00.355Z,9.58
2018-08-22T16:56:30.494Z,10.23
2018-08-22T16:59:04.290Z,9.10
2018-08-22T17:01:32.668Z,9.63
2018-08-22T17:04:01.133Z,9.28
2018-08-22T17:06:29.564Z,11.40
2018-08-22T17:08:58.543Z,10.85
2018-08-22T17:11:27.147Z,11.15
2018-08-22T17:13:55.576Z,10.80
2018-08-22T17:16:24.928Z,10.65
2018-08-22T17:18:53.614Z,10.65
2018-08-22T17:21:22.720Z,12.20
2018-08-22T17:23:51.593Z,12.43
2018-08-22T17:26:20.897Z,11.53
2018-08-22T17:28:52.346Z,12.23
2018-08-22T17:31:21.888Z,12.65
2018-08-22T17:33:55.303Z,13.63
2018-08-22T17:36:24.812Z,10.40
2018-08-22T17:38:54.980Z,12.03
2018-08-22T17:41:25.033Z,11.97
2018-08-22T17:44:06.326Z,11.50
2018-08-22T17:46:39.984Z,12.07
2018-08-22T17:49:08.588Z,12.37
2018-08-22T17:51:54.317Z,12.77
2018-08-22T17:54:22.749Z,13.18
2018-08-22T17:57:01.101Z,11.70
2018-08-22T17:59:29.618Z,11.33
2018-08-22T18:01:59.222Z,11.83
2018-08-22T18:04:29.780Z,10.80
2018-08-22T18:06:58.209Z,12.13
2018-08-22T18:09:26.626Z,12.27
2018-08-22T18:11:55.032Z,10.63
2018-08-22T18:14:24.034Z,10.28
2018-08-22T18:16:58.152Z,12.10
2018-08-22T18:19:26.755Z,10.10
2018-08-22T18:21:55.412Z,10.07
2018-08-22T18:24:23.834Z,9.70
2018-08-22T18:26:52.290Z,9.67
2018-08-22T18:29:20.909Z,9.43
2018-08-22T18:31:49.713Z,10.40
2018-08-22T18:34:18.157Z,10.20
2018-08-22T18:36:46.575Z,10.10
2018-08-22T18:39:16.097Z,14.27
2018-08-22T18:41:44.580Z,10.60
2018-08-22T18:44:13.116Z,9.90
2018-08-22T18:46:41.548Z,11.60
2018-08-22T18:49:10.217Z,10.37
2018-08-22T18:51:38.644Z,10.10
2018-08-22T18:54:07.455Z,10.87
2018-08-22T18:56:35.840Z,9.83
2018-08-22T18:59:15.609Z,9.77
2018-08-22T19:01:44.094Z,9.87
2018-08-22T19:04:12.530Z,27.50
2018-08-22T19:06:41.052Z,11.10
2018-08-22T19:09:09.649Z,8.60
2018-08-22T19:11:38.078Z,8.63
2018-08-22T19:14:06.618Z,9.00
2018-08-22T19:16:35.068Z,9.23
2018-08-22T19:19:03.508Z,10.13
2018-08-22T19:21:32.012Z,9.10
2018-08-22T19:24:04.971Z,10.07
2018-08-22T19:26:33.652Z,9.70
2018-08-22T19:29:04.394Z,10.93
2018-08-22T19:31:33.011Z,11.23
2018-08-22T19:34:01.465Z,10.50
2018-08-22T19:36:30.328Z,11.53
2018-08-22T19:38:58.897Z,10.73
2018-08-22T19:41:31.807Z,10.30
2018-08-22T19:44:00.233Z,11.70
2018-08-22T19:46:29.078Z,12.03
2018-08-22T19:48:57.597Z,11.80
2018-08-22T19:51:26.383Z,11.40
2018-08-22T19:54:08.115Z,10.73
2018-08-22T19:56:36.768Z,11.27
2018-08-22T19:59:05.809Z,12.07
2018-08-22T20:01:35.916Z,11.73
2018-08-22T20:04:04.449Z,11.43
2018-08-22T20:06:33.099Z,11.93
2018-08-22T20:09:01.781Z,10.93
2018-08-22T20:11:32.702Z,11.90
2018-08-22T20:14:02.750Z,12.17
2018-08-22T20:16:31.207Z,12.00
2018-08-22T20:19:01.033Z,12.17
2018-08-22T20:21:35.024Z,11.73
2018-08-22T20:24:05.324Z,12.43
2018-08-22T20:26:37.165Z,12.30
2018-08-22T20:29:06.146Z,11.80
2018-08-22T20:31:36.144Z,12.07
2018-08-22T20:34:09.010Z,12.83
2018-08-22T20:36:37.871Z,11.83
2018-08-22T20:39:11.208Z,13.60
2018-08-22T20:41:40.437Z,15.60
2018-08-22T20:44:11.745Z,14.37
2018-08-22T20:46:41.850Z,14.40
2018-08-22T20:49:10.608Z,15.70
2018-08-22T20:51:42.578Z,14.80
2018-08-22T20:54:14.108Z,15.20
2018-08-22T20:56:49.116Z,17.53
2018-08-22T20:59:18.831Z,15.07
2018-08-22T21:01:54.320Z,17.87
2018-08-22T21:04:23.028Z,16.73
2018-08-22T21:06:52.257Z,17.80
2018-08-22T21:09:25.117Z,17.20
2018-08-22T21:11:56.687Z,17.10
2018-08-22T21:14:27.865Z,18.70
2018-08-22T21:16:57.631Z,22.30
2018-08-22T21:19:28.260Z,21.27
2018-08-22T21:21:56.759Z,22.43
2018-08-22T21:24:25.435Z,20.83
2018-08-22T21:26:55.743Z,24.90
2018-08-22T21:29:25.583Z,22.83
2018-08-22T21:31:55.421Z,24.20
2018-08-22T21:34:25.645Z,25.57
2018-08-22T21:36:54.103Z,23.57
2018-08-22T21:39:25.962Z,23.90
2018-08-22T21:41:54.545Z,24.07
2018-08-22T21:44:24.803Z,25.70
2018-08-22T21:46:59.708Z,24.73
2018-08-22T21:49:28.668Z,26.80
2018-08-22T21:51:59.590Z,24.37
2018-08-22T21:54:45.419Z,28.80
2018-08-22T21:57:15.153Z,25.23
2018-08-22T21:59:43.592Z,26.93
2018-08-22T22:02:13.230Z,27.10
2018-08-22T22:04:42.936Z,27.90
2018-08-22T22:07:20.461Z,27.50
2018-08-22T22:09:51.977Z,29.17
2018-08-22T22:12:38.220Z,27.40
2018-08-22T22:15:09.529Z,28.63
2018-08-22T22:17:38.007Z,30.13
2018-08-22T22:20:06.474Z,26.77
2018-08-22T22:22:35.177Z,27.17
2018-08-22T22:25:07.557Z,28.23
2018-08-22T22:27:39.306Z,29.90
2018-08-22T22:30:08.031Z,30.83
2018-08-22T22:32:36.456Z,27.33
2018-08-22T22:35:05.673Z,31.77
2018-08-22T22:37:36.064Z,33.00
2018-08-22T22:40:04.728Z,32.27
2018-08-22T22:42:33.196Z,32.03
2018-08-22T22:45:01.621Z,31.60
2018-08-22T22:47:34.000Z,30.43
2018-08-22T22:50:05.484Z,30.90
2018-08-22T22:52:42.707Z,32.27
2018-08-22T22:55:11.745Z,33.33
2018-08-22T22:57:41.472Z,32.40
2018-08-22T23:00:13.417Z,32.10
2018-08-22T23:02:41.913Z,31.30
2018-08-22T23:05:10.342Z,32.57
2018-08-22T23:07:39.709Z,30.63
2018-08-22T23:10:10.898Z,32.60
2018-08-22T23:12:46.384Z,33.50
2018-08-22T23:15:18.443Z,30.77
2018-08-22T23:17:50.595Z,33.70
2018-08-22T23:20:42.920Z,31.80
2018-08-22T23:23:26.272Z,33.03
2018-08-22T23:25:55.724Z,33.07
2018-08-22T23:28:24.139Z,30.30
2018-08-22T23:30:52.561Z,31.70
2018-08-22T23:33:20.998Z,30.43
2018-08-22T23:35:49.408Z,31.93
2018-08-22T23:38:23.334Z,32.13
2018-08-22T23:40:51.726Z,29.90
2018-08-22T23:43:20.116Z,28.97
2018-08-22T23:45:53.869Z,29.93
2018-08-22T23:48:27.687Z,31.83
2018-08-22T23:51:00.029Z,31.53
2018-08-22T23:53:31.105Z,28.80
2018-08-22T23:56:12.086Z,29.17
2018-08-22T23:58:42.061Z,29.13
